(°C)
-1°
-1°
-1°
-1°
-1°
-1°
-1°
(°C)
-8°
-8°
-8°
-8°
-8°
-8°
-8°
D
D
D
D
D
D
D
(km/h)
25-36
24-35
23-34
23-34
23-35
23-38
23-39
(mm)
0
0
0
0
0
0
0
(%)
0
0
0
0
0
0
0

Napfelkelte

/ -5.1°
sun-icon
UV 0
08:23
16:30
Hold (utolsó negyed) (270°)
23:52
14:09

METAR 53.5°É 50.15°K (UWWW)-ért

Idő Feltételek Hőmérséklet/
Harmatpont
Szél Látási viszonyok Időjárás Felhők Légnyomás Módosítás Nyers
MVFR -1°C / -4°C 210º 14kt >10km - Broken Clouds 1300ft 1022 No Significant change UWWW 270330Z 21007MPS 9999 BKN013 M01/M04 Q1022 R15/CLRD60 NOSIG RMK QFE755/1007
MVFR -1°C / -4°C 190º 12kt >10km - Broken Clouds 1300ft 1022 No Significant change UWWW 270300Z 19006MPS 9999 BKN013 M01/M04 Q1022 R15/CLRD60 NOSIG RMK QFE755/1007
MVFR -1°C / -3°C 210º 12kt >10km - Broken Clouds 1100ft 1022 No Significant change UWWW 270230Z 21006MPS 9999 BKN011 M01/M03 Q1022 R15/CLRD60 NOSIG RMK QFE755/1007
IFR 0°C / -3°C 200º 12kt >10km - Broken Clouds 900ft 1022 No Significant change UWWW 270200Z 20006MPS 9999 BKN009 M00/M03 Q1022 R15/CLRD60 NOSIG RMK QFE755/1007
MVFR 0°C / -3°C 220º 14kt >10km - Broken Clouds 1300ft 1022 No Significant change UWWW 270130Z 22007MPS 9999 BKN013 00/M03 Q1022 R15/CLRD60 NOSIG RMK QFE755/1007
MVFR 0°C / -4°C 220º 14kt >10km - Broken Clouds 1500ft 1022 No Significant change UWWW 270100Z 22007MPS 9999 BKN015 00/M04 Q1022 R15/CLRD60 NOSIG RMK QFE755/1007
MVFR 0°C / -4°C 240º 12kt >10km - Broken Clouds 1700ft 1022 No Significant change UWWW 270030Z 24006MPS 9999 BKN017 M00/M04 Q1022 R15/CLRD60 NOSIG RMK QFE755/1007
MVFR 0°C / -4°C 230º 12kt >10km - Broken Clouds 1500ft 1022 No Significant change UWWW 270000Z 23006MPS 9999 BKN015 M00/M04 Q1022 R15/CLRD60 NOSIG RMK QFE755/1007
MVFR -1°C / -4°C 230º 16kt >10km - Broken Clouds 1400ft 1022 No Significant change UWWW 262330Z 23008MPS 9999 BKN014 M01/M04 Q1022 R15/CLRD60 NOSIG RMK QFE755/1007
MVFR -1°C / -4°C 230º 19kt >10km - Broken Clouds 1300ft 1022 No Significant change UWWW 262300Z 23010MPS 9999 BKN013 M01/M04 Q1022 R15/CLRD60 NOSIG RMK QFE755/1006
MVFR -1°C / -5°C 230º 16kt Gust 25kt >10km - Broken Clouds 1300ft 1022 No Significant change UWWW 262230Z 23008G13MPS 9999 BKN013 M01/M05 Q1022 R15/CLRD60 NOSIG RMK QFE755/1006
MVFR -2°C / -5°C 220º 17kt >10km - Broken Clouds 1100ft 1022 No Significant change UWWW 262200Z 22009MPS 9999 BKN011 M02/M05 Q1022 R15/CLRD60 NOSIG RMK QFE755/1006
MVFR -2°C / -5°C 220º 16kt >10km - Broken Clouds 1100ft 1022 No Significant change UWWW 262130Z 22008MPS 9999 BKN011 M02/M05 Q1022 R15/CLRD60 NOSIG RMK QFE755/1006
MVFR -2°C / -6°C 220º 6kt >10km - Broken Clouds 1200ft 1022 No Significant change UWWW 262100Z 22003MPS 9999 BKN012 M02/M06 Q1022 R15/CLRD60 NOSIG RMK QFE755/1007
MVFR -2°C / -6°C 210º 14kt >10km - Broken Clouds 1200ft 1021 No Significant change UWWW 262030Z 21007MPS 9999 BKN012 M02/M06 Q1021 R15/CLRD60 NOSIG RMK QFE754/1006
VFR -2°C / -5°C 210º 19kt Gust 29kt >10km - Clouds and Visibility OK 1021 No Significant change UWWW 262000Z 21010G15MPS CAVOK M02/M05 Q1021 R15/CLRD60 NOSIG RMK QFE754/1006
VFR -1°C / -6°C 210º 23kt >10km low Drifting Snow 3.00mm precipitation Vertical Visibility of 0ft. 1021 No Significant change UWWW 261930Z 21012MPS 9999 DRSN NSC M01/M06 Q1021 R15/CLRD60 NOSIG RMK QFE754/1006
VFR -1°C / -5°C 220º 14kt Gust 23kt >10km low Drifting Snow 3.00mm precipitation Vertical Visibility of 0ft. 1021 No Significant change UWWW 261900Z 22007G12MPS 9999 DRSN NSC M01/M05 Q1021 R15/CLRD60 NOSIG RMK QFE754/1006
MVFR -1°C / -5°C 230º 16kt >10km low Drifting Snow 3.00mm precipitation Vertical Visibility of 0ft. 1022 No Significant change UWWW 261830Z 23008MPS 9999 DRSN BKN020 M01/M05 Q1022 R15/CLRD60 NOSIG RMK QFE755/1006
MVFR -1°C / -4°C 230º 19kt >10km low Drifting Snow 3.00mm precipitation Vertical Visibility of 0ft. 1022 No Significant change UWWW 261800Z 23010MPS 9999 DRSN BKN020 M01/M04 Q1022 R15/CLRD60 NOSIG RMK QFE755/1006
MVFR 0°C / -4°C 230º 19kt >10km low Drifting Snow 3.00mm precipitation Vertical Visibility of 0ft. 1022 No Significant change UWWW 261730Z 23010MPS 9999 DRSN BKN020 M00/M04 Q1022 R15/CLRD60 NOSIG RMK QFE755/1006
MVFR 0°C / -4°C 230º 21kt >10km low Drifting Snow 3.00mm precipitation Vertical Visibility of 0ft. 1021 Temporary: 20017MPS RMK QFE754/1006 UWWW 261700Z 23011MPS 9999 DRSN BKN016 M00/M04 Q1021 R15/CLRD60 TEMPO 20017MPS RMK QFE754/1006
MVFR 0°C / -4°C 220º 17kt >10km low Drifting Snow 3.00mm precipitation Vertical Visibility of 0ft. 1021 Temporary: 20017MPS RMK QFE754/1006 UWWW 261630Z 22009MPS 9999 DRSN BKN016 00/M04 Q1021 R15/CLRD60 TEMPO 20017MPS RMK QFE754/1006
MVFR 0°C / -4°C 220º 17kt >10km low Drifting Snow 3.00mm precipitation Vertical Visibility of 0ft. 1021 No Significant change UWWW 261600Z 22009MPS 9999 DRSN BKN015 00/M04 Q1021 R15/CLRD60 NOSIG RMK QFE754/1006

MVFR

-1°C / -4°C

[Több]
Szél 210º 14kt
Látási viszonyok >10km
Időjárás -
Felhők Broken Clouds 1300ft
Légnyomás 1022
Módosítás No Significant change
Nyers UWWW 270330Z 21007MPS 9999 BKN013 M01/M04 Q1022 R15/CLRD60 NOSIG RMK QFE755/1007

MVFR

-1°C / -4°C

[Több]
Szél 190º 12kt
Látási viszonyok >10km
Időjárás -
Felhők Broken Clouds 1300ft
Légnyomás 1022
Módosítás No Significant change
Nyers UWWW 270300Z 19006MPS 9999 BKN013 M01/M04 Q1022 R15/CLRD60 NOSIG RMK QFE755/1007

MVFR

-1°C / -3°C

[Több]
Szél 210º 12kt
Látási viszonyok >10km
Időjárás -
Felhők Broken Clouds 1100ft
Légnyomás 1022
Módosítás No Significant change
Nyers UWWW 270230Z 21006MPS 9999 BKN011 M01/M03 Q1022 R15/CLRD60 NOSIG RMK QFE755/1007

IFR

0°C / -3°C

[Több]
Szél 200º 12kt
Látási viszonyok >10km
Időjárás -
Felhők Broken Clouds 900ft
Légnyomás 1022
Módosítás No Significant change
Nyers UWWW 270200Z 20006MPS 9999 BKN009 M00/M03 Q1022 R15/CLRD60 NOSIG RMK QFE755/1007

MVFR

0°C / -3°C

[Több]
Szél 220º 14kt
Látási viszonyok >10km
Időjárás -
Felhők Broken Clouds 1300ft
Légnyomás 1022
Módosítás No Significant change
Nyers UWWW 270130Z 22007MPS 9999 BKN013 00/M03 Q1022 R15/CLRD60 NOSIG RMK QFE755/1007

MVFR

0°C / -4°C

[Több]
Szél 220º 14kt
Látási viszonyok >10km
Időjárás -
Felhők Broken Clouds 1500ft
Légnyomás 1022
Módosítás No Significant change
Nyers UWWW 270100Z 22007MPS 9999 BKN015 00/M04 Q1022 R15/CLRD60 NOSIG RMK QFE755/1007

MVFR

0°C / -4°C

[Több]
Szél 240º 12kt
Látási viszonyok >10km
Időjárás -
Felhők Broken Clouds 1700ft
Légnyomás 1022
Módosítás No Significant change
Nyers UWWW 270030Z 24006MPS 9999 BKN017 M00/M04 Q1022 R15/CLRD60 NOSIG RMK QFE755/1007

MVFR

0°C / -4°C

[Több]
Szél 230º 12kt
Látási viszonyok >10km
Időjárás -
Felhők Broken Clouds 1500ft
Légnyomás 1022
Módosítás No Significant change
Nyers UWWW 270000Z 23006MPS 9999 BKN015 M00/M04 Q1022 R15/CLRD60 NOSIG RMK QFE755/1007

MVFR

-1°C / -4°C

[Több]
Szél 230º 16kt
Látási viszonyok >10km
Időjárás -
Felhők Broken Clouds 1400ft
Légnyomás 1022
Módosítás No Significant change
Nyers UWWW 262330Z 23008MPS 9999 BKN014 M01/M04 Q1022 R15/CLRD60 NOSIG RMK QFE755/1007

MVFR

-1°C / -4°C

[Több]
Szél 230º 19kt
Látási viszonyok >10km
Időjárás -
Felhők Broken Clouds 1300ft
Légnyomás 1022
Módosítás No Significant change
Nyers UWWW 262300Z 23010MPS 9999 BKN013 M01/M04 Q1022 R15/CLRD60 NOSIG RMK QFE755/1006

MVFR

-1°C / -5°C

[Több]
Szél 230º 16kt Gust 25kt
Látási viszonyok >10km
Időjárás -
Felhők Broken Clouds 1300ft
Légnyomás 1022
Módosítás No Significant change
Nyers UWWW 262230Z 23008G13MPS 9999 BKN013 M01/M05 Q1022 R15/CLRD60 NOSIG RMK QFE755/1006

MVFR

-2°C / -5°C

[Több]
Szél 220º 17kt
Látási viszonyok >10km
Időjárás -
Felhők Broken Clouds 1100ft
Légnyomás 1022
Módosítás No Significant change
Nyers UWWW 262200Z 22009MPS 9999 BKN011 M02/M05 Q1022 R15/CLRD60 NOSIG RMK QFE755/1006

MVFR

-2°C / -5°C

[Több]
Szél 220º 16kt
Látási viszonyok >10km
Időjárás -
Felhők Broken Clouds 1100ft
Légnyomás 1022
Módosítás No Significant change
Nyers UWWW 262130Z 22008MPS 9999 BKN011 M02/M05 Q1022 R15/CLRD60 NOSIG RMK QFE755/1006

MVFR

-2°C / -6°C

[Több]
Szél 220º 6kt
Látási viszonyok >10km
Időjárás -
Felhők Broken Clouds 1200ft
Légnyomás 1022
Módosítás No Significant change
Nyers UWWW 262100Z 22003MPS 9999 BKN012 M02/M06 Q1022 R15/CLRD60 NOSIG RMK QFE755/1007

MVFR

-2°C / -6°C

[Több]
Szél 210º 14kt
Látási viszonyok >10km
Időjárás -
Felhők Broken Clouds 1200ft
Légnyomás 1021
Módosítás No Significant change
Nyers UWWW 262030Z 21007MPS 9999 BKN012 M02/M06 Q1021 R15/CLRD60 NOSIG RMK QFE754/1006

VFR

-2°C / -5°C

[Több]
Szél 210º 19kt Gust 29kt
Látási viszonyok >10km
Időjárás -
Felhők Clouds and Visibility OK
Légnyomás 1021
Módosítás No Significant change
Nyers UWWW 262000Z 21010G15MPS CAVOK M02/M05 Q1021 R15/CLRD60 NOSIG RMK QFE754/1006

VFR

-1°C / -6°C

[Több]
Szél 210º 23kt
Látási viszonyok >10km
Időjárás low Drifting Snow 3.00mm precipitation
Felhők Vertical Visibility of 0ft.
Légnyomás 1021
Módosítás No Significant change
Nyers UWWW 261930Z 21012MPS 9999 DRSN NSC M01/M06 Q1021 R15/CLRD60 NOSIG RMK QFE754/1006

VFR

-1°C / -5°C

[Több]
Szél 220º 14kt Gust 23kt
Látási viszonyok >10km
Időjárás low Drifting Snow 3.00mm precipitation
Felhők Vertical Visibility of 0ft.
Légnyomás 1021
Módosítás No Significant change
Nyers UWWW 261900Z 22007G12MPS 9999 DRSN NSC M01/M05 Q1021 R15/CLRD60 NOSIG RMK QFE754/1006

MVFR

-1°C / -5°C

[Több]
Szél 230º 16kt
Látási viszonyok >10km
Időjárás low Drifting Snow 3.00mm precipitation
Felhők Vertical Visibility of 0ft.
Légnyomás 1022
Módosítás No Significant change
Nyers UWWW 261830Z 23008MPS 9999 DRSN BKN020 M01/M05 Q1022 R15/CLRD60 NOSIG RMK QFE755/1006

MVFR

-1°C / -4°C

[Több]
Szél 230º 19kt
Látási viszonyok >10km
Időjárás low Drifting Snow 3.00mm precipitation
Felhők Vertical Visibility of 0ft.
Légnyomás 1022
Módosítás No Significant change
Nyers UWWW 261800Z 23010MPS 9999 DRSN BKN020 M01/M04 Q1022 R15/CLRD60 NOSIG RMK QFE755/1006

MVFR

0°C / -4°C

[Több]
Szél 230º 19kt
Látási viszonyok >10km
Időjárás low Drifting Snow 3.00mm precipitation
Felhők Vertical Visibility of 0ft.
Légnyomás 1022
Módosítás No Significant change
Nyers UWWW 261730Z 23010MPS 9999 DRSN BKN020 M00/M04 Q1022 R15/CLRD60 NOSIG RMK QFE755/1006

MVFR

0°C / -4°C

[Több]
Szél 230º 21kt
Látási viszonyok >10km
Időjárás low Drifting Snow 3.00mm precipitation
Felhők Vertical Visibility of 0ft.
Légnyomás 1021
Módosítás Temporary: 20017MPS RMK QFE754/1006
Nyers UWWW 261700Z 23011MPS 9999 DRSN BKN016 M00/M04 Q1021 R15/CLRD60 TEMPO 20017MPS RMK QFE754/1006

MVFR

0°C / -4°C

[Több]
Szél 220º 17kt
Látási viszonyok >10km
Időjárás low Drifting Snow 3.00mm precipitation
Felhők Vertical Visibility of 0ft.
Légnyomás 1021
Módosítás Temporary: 20017MPS RMK QFE754/1006
Nyers UWWW 261630Z 22009MPS 9999 DRSN BKN016 00/M04 Q1021 R15/CLRD60 TEMPO 20017MPS RMK QFE754/1006

MVFR

0°C / -4°C

[Több]
Szél 220º 17kt
Látási viszonyok >10km
Időjárás low Drifting Snow 3.00mm precipitation
Felhők Vertical Visibility of 0ft.
Légnyomás 1021
Módosítás No Significant change
Nyers UWWW 261600Z 22009MPS 9999 DRSN BKN015 00/M04 Q1021 R15/CLRD60 NOSIG RMK QFE754/1006

TAF 53.5°É 50.15°K (UWWW)-ért

From till


Maximum Temperature 1ºC on . Minimum Temperature -1ºC on .
From till Wind 220º 14kt. Gust 25kt. Visibility 6000m. Overcast 800ft.
Temporarly from till Wind 190º 6kt. Gust 17kt. Visibility 2000m. freezing Drizzle Mist . Overcast 300ft.
Becoming from till Wind 190º 6kt. Gust 17kt. Visibility 6000m. Broken Clouds 1600ft.
Temporarly from till Wind 160º 14kt. Gust 25kt.

Nyers: TAF UWWW 270156Z 2703/2803 22007G13MPS 6000 OVC008 TX01/2711Z TNM01/2703Z TEMPO 2703/2706 19003G09MPS 2000 FZDZ BR OVC003 BECMG 2706/2707 19003G09MPS BKN016 TEMPO 2712/2803 16007G13MPS

Aktuális műholdas és esőképek ezen a helyen: 53.5°É 50.15°K

A helyszín jelölő a következő helyen van elhelyezve: 53.5°É 50.15°K. [Több]

A valós idejű műholdas kép ötvözi a nappali látható fényt az éjszakai infravörös sugárzással. Éjjel a kép nem sötét, mivel az infravörös sugárzás képes érzékelni a hőmérséklet-különbségeket. Sajnos az alacsony felhőket és a ködöt nehéz megkülönböztetni a talaj hőmérsékletétől, így az éjszaka folyamán szinte láthatatlanok lehetnek. A Meteosat európai műholdképei valós időben frissülnek minden 5 percben. A GOES-16/GOES-17 (Észak- és Dél-Amerika) és Himawari (Ázsia) képei 10 percenként frissülnek.

Minden jog fenntartva 2021 EUMETSAT / meteoblue. / Minden jog fenntartva 2021 meteoblue

Radarkép és ultrarövid távú csapadék-előrejelzés a következő helyhez: 53.5°É 50.15°K

Szitáló eső
Enyhe
Mérsékelt
Erős
Nagyon nehéz
Jégeső

A helyzetjelző helye: 53.5°É 50.15°K. Ez az animáció bemutatja a csapadékradart az elmúlt órára vonatkozóan, valamint előrejelzést az elkövetkező 1 órára. A szitáló eső vagy enyhe hóesés láthatatlan lehet a radar számára. A csapadék intenzitása színkóddal van jelölve, a világoskéktől a narancssárgáig.